createdAt,value
2019-02-14T00:00:13.192Z,31.63
2019-02-14T00:02:42.005Z,28.57
2019-02-14T00:05:16.419Z,32.97
2019-02-14T00:07:41.422Z,30.03
2019-02-14T00:10:10.450Z,35.00
2019-02-14T00:12:39.300Z,31.63
2019-02-14T00:15:11.179Z,31.10
2019-02-14T00:17:39.909Z,35.47
2019-02-14T00:20:09.945Z,37.67
2019-02-14T00:22:38.736Z,34.93
2019-02-14T00:25:07.920Z,43.17
2019-02-14T00:27:36.782Z,40.73
2019-02-14T00:30:08.190Z,33.33
2019-02-14T00:32:37.289Z,31.70
2019-02-14T00:35:06.827Z,36.37
2019-02-14T00:37:35.600Z,38.83
2019-02-14T00:40:06.473Z,29.27
2019-02-14T00:42:35.263Z,34.67
2019-02-14T00:45:04.621Z,30.27
2019-02-14T00:47:33.323Z,29.10
2019-02-14T00:50:01.936Z,31.40
2019-02-14T00:52:30.636Z,28.07
2019-02-14T00:54:59.320Z,27.67
2019-02-14T00:57:28.045Z,28.17
2019-02-14T00:59:56.798Z,32.27
2019-02-14T01:02:25.453Z,31.73
2019-02-14T01:04:54.150Z,31.77
2019-02-14T01:07:22.893Z,26.10
2019-02-14T01:09:51.599Z,34.50
2019-02-14T01:12:20.389Z,40.63
2019-02-14T01:14:49.230Z,35.33
2019-02-14T01:17:18.031Z,41.43
2019-02-14T01:19:46.764Z,45.03
2019-02-14T01:22:15.622Z,41.07
2019-02-14T01:24:44.481Z,35.40
2019-02-14T01:27:13.261Z,37.27
2019-02-14T01:29:42.073Z,38.37
2019-02-14T01:32:10.971Z,35.43
2019-02-14T01:34:39.748Z,33.77
2019-02-14T01:37:08.614Z,35.53
2019-02-14T01:39:37.402Z,35.30
2019-02-14T01:42:06.153Z,36.60
2019-02-14T01:44:34.873Z,39.93
2019-02-14T01:47:03.651Z,42.40
2019-02-14T01:49:32.380Z,34.63
2019-02-14T01:52:01.163Z,35.10
2019-02-14T01:54:29.933Z,35.87
2019-02-14T01:56:58.635Z,36.40
2019-02-14T01:59:27.389Z,37.70
2019-02-14T02:01:56.539Z,36.83
2019-02-14T02:04:25.252Z,30.53
2019-02-14T02:06:53.834Z,36.57
2019-02-14T02:09:22.538Z,40.10
2019-02-14T02:11:51.291Z,37.30
2019-02-14T02:14:20.017Z,36.20
2019-02-14T02:16:48.762Z,28.60
2019-02-14T02:19:17.590Z,36.50
2019-02-14T02:21:46.291Z,32.03
2019-02-14T02:24:15.097Z,32.17
2019-02-14T02:26:43.773Z,30.33
2019-02-14T02:29:12.582Z,30.63
2019-02-14T02:31:41.262Z,32.80
2019-02-14T02:34:09.957Z,30.30
2019-02-14T02:36:38.557Z,23.67
2019-02-14T02:39:08.071Z,31.03
2019-02-14T02:41:36.752Z,31.90
2019-02-14T02:44:05.399Z,35.87
2019-02-14T02:46:34.100Z,24.97
2019-02-14T02:49:02.823Z,24.13
2019-02-14T02:51:31.490Z,26.40
2019-02-14T02:54:00.220Z,24.50
2019-02-14T02:56:29.017Z,25.00
2019-02-14T02:58:57.644Z,26.90
2019-02-14T03:01:26.366Z,32.40
2019-02-14T03:03:55.127Z,29.23
2019-02-14T03:06:23.821Z,34.90
2019-02-14T03:08:52.576Z,30.00
2019-02-14T03:11:21.267Z,23.87
2019-02-14T03:13:49.992Z,25.43
2019-02-14T03:16:18.751Z,23.30
2019-02-14T03:18:47.575Z,25.63
2019-02-14T03:21:16.310Z,29.17
2019-02-14T03:23:44.964Z,31.43
2019-02-14T03:26:13.734Z,26.47
2019-02-14T03:28:42.437Z,28.53
2019-02-14T03:31:11.223Z,26.27
2019-02-14T03:33:39.954Z,30.60
2019-02-14T03:36:08.595Z,29.70
2019-02-14T03:38:37.272Z,28.70
2019-02-14T03:41:06.330Z,29.37
2019-02-14T03:43:35.068Z,31.20
2019-02-14T03:46:04.042Z,32.67
2019-02-14T03:48:32.690Z,36.53
2019-02-14T03:51:01.478Z,37.67
2019-02-14T03:53:30.178Z,34.60
2019-02-14T03:55:58.912Z,35.10
2019-02-14T03:58:27.568Z,37.53
2019-02-14T04:00:56.288Z,30.60
2019-02-14T04:03:24.956Z,33.63
2019-02-14T04:05:53.712Z,38.20
2019-02-14T04:08:22.507Z,42.73
2019-02-14T04:10:51.134Z,29.83
2019-02-14T04:13:19.743Z,31.80
2019-02-14T04:15:48.514Z,32.80
2019-02-14T04:18:17.321Z,32.53
2019-02-14T04:20:45.950Z,31.20
2019-02-14T04:23:14.734Z,29.30
2019-02-14T04:25:43.484Z,27.20
2019-02-14T04:28:12.284Z,25.60
2019-02-14T04:30:41.092Z,31.87
2019-02-14T04:33:10.154Z,30.00
2019-02-14T04:35:38.896Z,33.27
2019-02-14T04:38:07.643Z,32.47
2019-02-14T04:40:36.262Z,28.80
2019-02-14T04:43:05.029Z,29.80
2019-02-14T04:45:33.681Z,29.00
2019-02-14T04:48:02.363Z,31.60
2019-02-14T04:50:31.026Z,26.47
2019-02-14T04:52:59.720Z,36.10
2019-02-14T04:55:28.306Z,31.10
2019-02-14T04:57:56.992Z,32.40
2019-02-14T05:00:25.722Z,28.67
2019-02-14T05:02:54.324Z,28.87
2019-02-14T05:05:23.090Z,35.60
2019-02-14T05:07:51.765Z,38.40
2019-02-14T05:10:20.476Z,33.67
2019-02-14T05:12:49.216Z,35.20
2019-02-14T05:15:17.960Z,31.70
2019-02-14T05:17:46.651Z,31.53
2019-02-14T05:20:15.366Z,37.13
2019-02-14T05:22:44.013Z,28.40
2019-02-14T05:25:12.857Z,30.30
2019-02-14T05:27:41.519Z,31.27
2019-02-14T05:30:13.146Z,29.73
2019-02-14T05:32:41.906Z,37.60
2019-02-14T05:35:10.695Z,34.67
2019-02-14T05:37:39.343Z,39.00
2019-02-14T05:40:10.294Z,35.50
2019-02-14T05:42:39.324Z,32.77
2019-02-14T05:45:10.801Z,32.77
2019-02-14T05:47:39.544Z,36.17
2019-02-14T05:50:10.905Z,38.37
2019-02-14T05:52:39.615Z,30.20
2019-02-14T05:55:10.728Z,36.80
2019-02-14T05:57:39.387Z,27.07
2019-02-14T06:00:11.117Z,25.50
2019-02-14T06:02:39.844Z,27.03
2019-02-14T06:05:08.771Z,27.77
2019-02-14T06:07:37.484Z,23.97
2019-02-14T06:10:09.970Z,27.50
2019-02-14T06:12:38.742Z,25.73
2019-02-14T06:15:10.354Z,29.47
2019-02-14T06:17:39.107Z,25.63
2019-02-14T06:20:09.966Z,20.60
2019-02-14T06:22:38.776Z,31.63
2019-02-14T06:25:09.969Z,18.40
2019-02-14T06:27:38.725Z,21.77
2019-02-14T06:30:10.393Z,22.10
2019-02-14T06:32:39.193Z,27.40
2019-02-14T06:35:09.530Z,20.27
2019-02-14T06:37:38.256Z,29.07
2019-02-14T06:40:09.837Z,19.93
2019-02-14T06:42:38.480Z,23.30
2019-02-14T06:45:10.486Z,25.23
2019-02-14T06:47:39.333Z,20.93
2019-02-14T06:50:09.284Z,30.47
2019-02-14T06:52:38.088Z,25.13
2019-02-14T06:55:07.811Z,28.90
2019-02-14T06:57:36.531Z,29.13
2019-02-14T07:00:08.249Z,24.70
2019-02-14T07:02:36.870Z,28.30
2019-02-14T07:05:07.740Z,27.37
2019-02-14T07:07:36.530Z,30.13
2019-02-14T07:10:07.791Z,35.27
2019-02-14T07:12:36.553Z,29.53
2019-02-14T07:15:08.321Z,34.43
2019-02-14T07:17:37.055Z,25.03
2019-02-14T07:20:08.889Z,26.10
2019-02-14T07:22:38.804Z,27.03
2019-02-14T07:25:09.955Z,27.33
2019-02-14T07:27:38.633Z,29.17
2019-02-14T07:30:10.286Z,23.60
2019-02-14T07:32:39.016Z,23.40
2019-02-14T07:35:09.532Z,22.03
2019-02-14T07:37:38.332Z,25.37
2019-02-14T07:40:09.878Z,21.80
2019-02-14T07:42:38.643Z,24.50
2019-02-14T07:45:10.346Z,23.20
2019-02-14T07:47:39.123Z,31.03
2019-02-14T07:50:10.266Z,23.10
2019-02-14T07:52:38.952Z,32.23
2019-02-14T07:55:10.010Z,18.17
2019-02-14T07:57:38.910Z,28.50
2019-02-14T08:00:10.766Z,18.60
2019-02-14T08:02:40.009Z,20.23
2019-02-14T08:05:09.589Z,18.73
2019-02-14T08:07:38.350Z,16.90
2019-02-14T08:10:10.273Z,16.77
2019-02-14T08:12:39.206Z,19.13
2019-02-14T08:15:10.753Z,23.47
2019-02-14T08:17:39.642Z,25.70
2019-02-14T08:20:11.035Z,19.80
2019-02-14T08:22:39.705Z,13.27
2019-02-14T08:25:10.515Z,17.00
2019-02-14T08:27:39.305Z,23.27
2019-02-14T08:30:11.721Z,14.93
2019-02-14T08:32:40.554Z,14.57
2019-02-14T08:35:09.514Z,16.93
2019-02-14T08:37:45.014Z,15.97
2019-02-14T08:40:11.659Z,13.63
2019-02-14T08:42:40.476Z,10.23
2019-02-14T08:45:11.839Z,9.87
2019-02-14T08:47:41.026Z,24.23
2019-02-14T08:50:10.809Z,8.33
2019-02-14T08:52:39.681Z,10.20
2019-02-14T08:55:10.179Z,7.37
2019-02-14T08:57:38.978Z,10.60
2019-02-14T09:00:10.994Z,7.00
2019-02-14T09:02:39.822Z,8.07
2019-02-14T09:05:09.093Z,15.83
2019-02-14T09:07:37.841Z,11.80
2019-02-14T09:10:09.869Z,9.83
2019-02-14T09:12:38.693Z,7.03
2019-02-14T09:15:10.558Z,12.60
2019-02-14T09:17:39.509Z,7.27
2019-02-14T09:20:11.254Z,15.97
2019-02-14T09:22:40.178Z,7.63
2019-02-14T09:25:08.930Z,8.30
2019-02-14T09:27:37.649Z,6.70
2019-02-14T09:30:09.444Z,6.77
2019-02-14T09:32:38.284Z,9.53
2019-02-14T09:35:09.005Z,7.80
2019-02-14T09:37:37.958Z,9.03
2019-02-14T09:40:09.541Z,8.13
2019-02-14T09:42:38.312Z,10.40
2019-02-14T09:45:10.202Z,7.37
2019-02-14T09:47:38.911Z,6.53
2019-02-14T09:50:10.387Z,6.97
2019-02-14T09:52:39.493Z,17.53
2019-02-14T09:55:11.248Z,6.10
2019-02-14T09:57:40.065Z,12.30
2019-02-14T10:00:11.510Z,4.70
2019-02-14T10:02:40.367Z,5.70
2019-02-14T10:05:10.102Z,5.67
2019-02-14T10:07:38.893Z,5.30
2019-02-14T10:10:11.214Z,9.97
2019-02-14T10:12:40.024Z,9.30
2019-02-14T10:15:11.813Z,14.23
2019-02-14T10:17:40.642Z,6.07
2019-02-14T10:20:12.548Z,7.10
2019-02-14T10:22:41.370Z,8.97
2019-02-14T10:25:10.680Z,6.97
2019-02-14T10:27:39.517Z,9.80
2019-02-14T10:30:11.390Z,8.77
2019-02-14T10:32:40.123Z,8.67
2019-02-14T10:35:08.942Z,6.33
2019-02-14T10:37:37.886Z,14.23
2019-02-14T10:40:09.691Z,5.00
2019-02-14T10:42:38.337Z,4.90
2019-02-14T10:45:10.025Z,12.27
2019-02-14T10:47:38.891Z,5.03
2019-02-14T10:50:10.026Z,10.53
2019-02-14T10:52:38.826Z,9.97
2019-02-14T10:55:10.173Z,3.93
2019-02-14T10:57:38.974Z,4.70
2019-02-14T11:00:12.067Z,4.80
2019-02-14T11:02:40.867Z,4.53
2019-02-14T11:05:09.647Z,7.43
2019-02-14T11:07:38.399Z,5.53
2019-02-14T11:10:09.907Z,4.23
2019-02-14T11:12:38.543Z,4.30
2019-02-14T11:15:10.099Z,3.77
2019-02-14T11:17:38.766Z,10.53
2019-02-14T11:20:10.355Z,3.67
2019-02-14T11:22:39.052Z,3.37
2019-02-14T11:25:10.572Z,3.63
2019-02-14T11:27:39.334Z,3.13
2019-02-14T11:30:11.084Z,5.10
2019-02-14T11:32:39.955Z,5.30
2019-02-14T11:35:10.480Z,2.70
2019-02-14T11:37:39.229Z,3.47
2019-02-14T11:40:10.801Z,10.10
2019-02-14T11:42:39.623Z,2.67
2019-02-14T11:45:11.470Z,2.47
2019-02-14T11:47:40.270Z,3.37
2019-02-14T11:50:11.045Z,6.50
2019-02-14T11:52:39.801Z,5.30
2019-02-14T11:55:10.776Z,4.07
2019-02-14T11:57:39.781Z,2.70
2019-02-14T12:00:11.484Z,3.90
2019-02-14T12:02:40.226Z,3.53
2019-02-14T12:05:09.020Z,3.97
2019-02-14T12:07:37.721Z,5.73
2019-02-14T12:10:13.402Z,2.57
2019-02-14T12:12:39.799Z,2.53
2019-02-14T12:15:11.150Z,3.23
2019-02-14T12:17:39.859Z,2.77
2019-02-14T12:20:12.836Z,2.57
2019-02-14T12:22:46.648Z,2.40
2019-02-14T12:25:15.311Z,2.90
2019-02-14T12:27:46.234Z,1.90
2019-02-14T12:30:15.850Z,1.80
2019-02-14T12:32:44.630Z,2.93
2019-02-14T12:35:13.772Z,1.93
2019-02-14T12:37:42.482Z,2.63
2019-02-14T12:40:13.353Z,3.20
2019-02-14T12:42:42.175Z,2.83
2019-02-14T12:45:20.199Z,2.50
2019-02-14T12:47:44.372Z,2.63
2019-02-14T12:50:13.387Z,2.20
2019-02-14T12:52:42.127Z,2.90
2019-02-14T12:55:10.901Z,1.87
2019-02-14T12:57:39.736Z,1.90
2019-02-14T13:00:11.358Z,2.17
2019-02-14T13:02:40.120Z,3.63
2019-02-14T13:05:09.297Z,3.27
2019-02-14T13:07:38.185Z,3.13
2019-02-14T13:10:12.053Z,2.90
2019-02-14T13:12:40.844Z,3.00
2019-02-14T13:15:12.695Z,2.20
2019-02-14T13:17:42.671Z,1.83
2019-02-14T13:20:12.355Z,2.03
2019-02-14T13:22:41.100Z,6.77
2019-02-14T13:25:11.800Z,2.33
2019-02-14T13:27:40.720Z,2.40
2019-02-14T13:30:12.704Z,17.73
2019-02-14T13:32:43.184Z,6.23
2019-02-14T13:35:11.938Z,3.20
2019-02-14T13:37:40.706Z,2.93
2019-02-14T13:40:13.695Z,3.10
2019-02-14T13:42:42.435Z,10.00
2019-02-14T13:45:25.693Z,2.10
2019-02-14T13:47:54.578Z,2.40
2019-02-14T13:50:23.469Z,2.87
2019-02-14T13:52:52.831Z,2.70
2019-02-14T13:55:23.742Z,2.80
2019-02-14T13:57:52.306Z,2.80
2019-02-14T14:00:25.529Z,2.80
2019-02-14T14:02:56.018Z,12.50
2019-02-14T14:05:29.429Z,2.50
2019-02-14T14:08:10.013Z,2.87
2019-02-14T14:10:38.814Z,3.50
2019-02-14T14:13:10.469Z,1.93
2019-02-14T14:15:53.015Z,3.00
2019-02-14T14:18:21.933Z,4.07
2019-02-14T14:20:50.693Z,3.70
2019-02-14T14:23:22.658Z,2.50
2019-02-14T14:25:51.374Z,2.73
2019-02-14T14:28:20.157Z,2.20
2019-02-14T14:30:49.076Z,2.60
2019-02-14T14:33:29.071Z,2.57
2019-02-14T14:39:24.939Z,2.83
2019-02-14T14:42:01.325Z,3.70
2019-02-14T14:47:11.856Z,5.57
2019-02-14T14:49:43.121Z,3.30
2019-02-14T14:52:17.389Z,4.93
2019-02-14T14:54:46.318Z,3.07
2019-02-14T14:57:15.048Z,3.40
2019-02-14T14:59:43.824Z,3.77
2019-02-14T15:02:13.386Z,3.57
2019-02-14T15:04:42.023Z,3.10
2019-02-14T15:07:10.803Z,5.10
2019-02-14T15:09:42.320Z,11.50
2019-02-14T15:14:52.271Z,6.10
2019-02-14T15:17:22.481Z,3.67
2019-02-14T15:19:51.937Z,7.67
2019-02-14T15:22:20.739Z,4.50
2019-02-14T15:24:51.679Z,4.75
2019-02-14T15:27:20.082Z,2.73
2019-02-14T15:29:50.673Z,3.20
2019-02-14T15:32:19.538Z,3.70
2019-02-14T15:34:48.374Z,3.70
2019-02-14T15:37:17.971Z,3.37
2019-02-14T15:39:46.965Z,4.17
2019-02-14T15:42:15.660Z,3.10
2019-02-14T15:44:44.500Z,9.27
2019-02-14T15:47:13.347Z,3.63
2019-02-14T15:49:42.052Z,4.40
2019-02-14T15:52:10.828Z,2.63
2019-02-14T15:54:39.588Z,3.30
2019-02-14T15:57:08.292Z,5.53
2019-02-14T15:59:37.110Z,10.97
2019-02-14T16:02:06.608Z,6.60
2019-02-14T16:04:36.393Z,12.10
2019-02-14T16:07:05.059Z,5.10
2019-02-14T16:09:33.812Z,6.73
2019-02-14T16:12:02.593Z,14.67
2019-02-14T16:14:31.236Z,10.83
2019-02-14T16:17:00.273Z,8.33
2019-02-14T16:19:29.028Z,10.10
2019-02-14T16:21:57.764Z,10.77
2019-02-14T16:24:26.522Z,13.10
2019-02-14T16:26:55.258Z,13.97
2019-02-14T16:29:25.010Z,9.73
2019-02-14T16:31:54.440Z,10.67
2019-02-14T16:34:23.105Z,11.40
2019-02-14T16:36:52.256Z,8.10
2019-02-14T16:39:23.098Z,6.73
2019-02-14T16:41:51.574Z,10.43
2019-02-14T16:44:20.327Z,11.07
2019-02-14T16:46:49.046Z,9.30
2019-02-14T16:49:17.798Z,15.00
2019-02-14T16:51:46.579Z,8.67
2019-02-14T16:54:15.299Z,16.10
2019-02-14T16:56:44.067Z,8.90
2019-02-14T16:59:12.786Z,7.00
2019-02-14T17:01:41.554Z,9.40
2019-02-14T17:04:10.366Z,16.10
2019-02-14T17:06:39.163Z,7.27
2019-02-14T17:09:08.515Z,8.67
2019-02-14T17:11:37.309Z,7.60
2019-02-14T17:14:06.064Z,16.57
2019-02-14T17:16:34.909Z,12.83
2019-02-14T17:19:03.662Z,10.90
2019-02-14T17:21:32.604Z,11.47
2019-02-14T17:24:01.401Z,15.70
2019-02-14T17:26:30.297Z,17.50
2019-02-14T17:29:01.930Z,16.13
2019-02-14T17:31:30.726Z,18.00
2019-02-14T17:33:59.456Z,31.37
2019-02-14T17:36:28.485Z,26.17
2019-02-14T17:38:57.735Z,21.67
2019-02-14T17:41:26.587Z,14.13
2019-02-14T17:43:55.422Z,8.57
2019-02-14T17:46:24.242Z,16.30
2019-02-14T17:48:53.059Z,19.63
2019-02-14T17:51:21.751Z,7.97
2019-02-14T17:53:50.574Z,16.53
2019-02-14T17:56:19.419Z,8.70
2019-02-14T17:58:48.165Z,25.27
2019-02-14T18:01:16.969Z,14.37
2019-02-14T18:03:45.781Z,17.90
2019-02-14T18:06:14.642Z,24.97
2019-02-14T18:08:46.128Z,28.87
2019-02-14T18:11:14.987Z,32.00
2019-02-14T18:13:43.951Z,31.57
2019-02-14T18:16:12.676Z,32.20
2019-02-14T18:18:41.554Z,31.00
2019-02-14T18:21:10.425Z,31.00
2019-02-14T18:23:39.169Z,17.40
2019-02-14T18:26:08.130Z,46.37
2019-02-14T18:28:36.940Z,41.23
2019-02-14T18:31:06.089Z,65.73
2019-02-14T18:33:34.955Z,51.57
2019-02-14T18:36:03.835Z,40.53
2019-02-14T18:38:32.592Z,45.07
2019-02-14T18:41:04.040Z,51.67
2019-02-14T18:43:32.287Z,55.77
2019-02-14T18:46:01.129Z,53.17
2019-02-14T18:48:29.891Z,41.03
2019-02-14T18:50:58.727Z,45.77
2019-02-14T18:53:30.420Z,49.40
2019-02-14T18:55:59.140Z,42.03
2019-02-14T18:58:28.012Z,35.27
2019-02-14T19:00:56.772Z,30.60
2019-02-14T19:03:25.573Z,35.30
2019-02-14T19:05:57.566Z,18.27
2019-02-14T19:08:26.476Z,15.73
2019-02-14T19:10:55.388Z,14.07
2019-02-14T19:13:24.406Z,14.03
2019-02-14T19:15:55.158Z,13.00
2019-02-14T19:18:26.059Z,13.13
2019-02-14T19:20:54.828Z,13.57
2019-02-14T19:23:24.539Z,12.27
2019-02-14T19:25:53.535Z,12.37
2019-02-14T19:28:22.452Z,9.97
2019-02-14T19:30:51.880Z,11.10
2019-02-14T19:33:20.742Z,8.63
2019-02-14T19:35:49.686Z,26.23
2019-02-14T19:38:18.753Z,36.73
2019-02-14T19:40:47.735Z,27.47
2019-02-14T19:43:16.621Z,20.50
2019-02-14T19:45:45.322Z,18.50
2019-02-14T19:48:19.588Z,20.23
2019-02-14T19:50:48.604Z,16.30
2019-02-14T19:53:17.453Z,20.10
2019-02-14T19:55:46.409Z,12.87
2019-02-14T19:58:15.247Z,19.83
2019-02-14T20:00:44.013Z,22.43
2019-02-14T20:03:12.800Z,12.90
2019-02-14T20:05:41.658Z,13.40
2019-02-14T20:08:13.444Z,11.20
2019-02-14T20:10:42.295Z,12.40
2019-02-14T20:13:11.185Z,17.53
2019-02-14T20:15:41.399Z,15.63
2019-02-14T20:18:10.176Z,21.50
2019-02-14T20:20:39.077Z,16.53
2019-02-14T20:23:08.522Z,16.70
2019-02-14T20:25:40.141Z,11.27
2019-02-14T20:28:10.463Z,10.83
2019-02-14T20:30:40.512Z,13.40
2019-02-14T20:33:09.299Z,12.23
2019-02-14T20:35:38.071Z,13.80
2019-02-14T20:38:07.225Z,10.07
2019-02-14T20:40:36.055Z,15.10
2019-02-14T20:43:07.551Z,12.97
2019-02-14T20:45:36.323Z,14.40
2019-02-14T20:48:06.244Z,12.90
2019-02-14T20:50:34.946Z,17.23
2019-02-14T20:53:03.754Z,10.60
2019-02-14T20:55:32.554Z,19.33
2019-02-14T20:58:01.334Z,24.33
2019-02-14T21:00:31.757Z,59.97
2019-02-14T21:03:00.549Z,37.43
2019-02-14T21:05:36.554Z,22.63
2019-02-14T21:08:08.364Z,13.40
2019-02-14T21:10:41.286Z,11.50
2019-02-14T21:13:22.624Z,11.73
2019-02-14T21:15:58.048Z,17.20
2019-02-14T21:18:26.471Z,15.70
2019-02-14T21:20:55.271Z,14.63
2019-02-14T21:23:28.076Z,17.70
2019-02-14T21:25:56.904Z,16.27
2019-02-14T21:28:25.781Z,16.20
2019-02-14T21:30:57.691Z,21.43
2019-02-14T21:33:26.491Z,27.53
2019-02-14T21:35:55.118Z,18.23
2019-02-14T21:38:23.969Z,17.53
2019-02-14T21:40:52.690Z,27.40
2019-02-14T21:43:21.408Z,18.83
2019-02-14T21:45:50.215Z,14.70
2019-02-14T21:48:19.088Z,11.80
2019-02-14T21:50:48.024Z,11.77
2019-02-14T21:53:18.144Z,16.13
2019-02-14T21:55:47.075Z,16.90
2019-02-14T21:58:15.722Z,12.20
2019-02-14T22:00:44.569Z,18.67
2019-02-14T22:03:13.393Z,12.97
2019-02-14T22:05:42.194Z,39.07
2019-02-14T22:08:11.631Z,14.77
2019-02-14T22:10:40.478Z,12.63
2019-02-14T22:13:09.318Z,23.60
2019-02-14T22:15:38.022Z,13.07
2019-02-14T22:18:06.808Z,11.10
2019-02-14T22:20:35.686Z,14.70
2019-02-14T22:23:04.506Z,17.57
2019-02-14T22:25:34.661Z,10.13
2019-02-14T22:28:03.396Z,10.58
2019-02-14T22:30:32.086Z,12.00
2019-02-14T22:33:00.836Z,7.80
2019-02-14T22:35:29.642Z,8.90
2019-02-14T22:37:58.340Z,8.10
2019-02-14T22:40:27.101Z,9.30
2019-02-14T22:42:55.740Z,8.17
2019-02-14T22:45:24.462Z,12.27
2019-02-14T22:47:53.211Z,9.73
2019-02-14T22:50:21.883Z,7.23
2019-02-14T22:52:50.669Z,8.63
2019-02-14T22:55:19.530Z,8.00
2019-02-14T22:57:48.272Z,8.50
2019-02-14T23:00:20.692Z,7.27
2019-02-14T23:02:49.678Z,10.03
2019-02-14T23:05:18.832Z,8.63
2019-02-14T23:07:47.666Z,9.60
2019-02-14T23:10:16.427Z,7.90
2019-02-14T23:12:45.300Z,6.50
2019-02-14T23:15:14.126Z,7.87
2019-02-14T23:17:42.877Z,8.60
2019-02-14T23:20:11.631Z,9.27
2019-02-14T23:22:40.480Z,7.00
2019-02-14T23:29:22.014Z,8.57
